Terminal Aerodrome Forecast
Issued by NWS

Home | Current Version | Previous Version | Text Only | Print | Product List | Glossary On
Versions: 1 2 3 4 5 6 7 8 9 10 11 12 13 14 15
802
FTUS45 KPIH 262339
TAFSUN
TAF
KSUN 262339Z 2700/2724 31010KT P6SM -SHRA SCT025 BKN040 OVC080
      TEMPO 2700/2704 4SM -SHRA BR SCT008 BKN025 OVC040
     FM270500 32010KT P6SM FEW040 SCT120
     FM270900 32015G25KT P6SM FEW040
     FM271700 32020G30KT P6SM SCT050
      AMD LTD TO CLD VIS AND WIND 2705/2713=

USA.gov is the U.S. government's official web portal to all federal, state and local government web resources and services.